sensor_id;sensor_type;location;lat;lon;timestamp;P1;durP1;ratioP1;P2;durP2;ratioP2
43114;SDS011;28727;50.068;14.452;2022-12-11T00:02:15;28.80;;;14.07;;
43114;SDS011;28727;50.068;14.452;2022-12-11T00:04:49;26.13;;;12.55;;
43114;SDS011;28727;50.068;14.452;2022-12-11T00:07:21;24.67;;;11.88;;
43114;SDS011;28727;50.068;14.452;2022-12-11T00:12:28;24.95;;;11.75;;
43114;SDS011;28727;50.068;14.452;2022-12-11T00:15:00;25.27;;;12.35;;
43114;SDS011;28727;50.068;14.452;2022-12-11T00:17:32;26.33;;;13.15;;
43114;SDS011;28727;50.068;14.452;2022-12-11T00:20:04;27.90;;;13.25;;
43114;SDS011;28727;50.068;14.452;2022-12-11T00:22:36;27.98;;;13.20;;
43114;SDS011;28727;50.068;14.452;2022-12-11T00:25:10;27.27;;;12.90;;
43114;SDS011;28727;50.068;14.452;2022-12-11T00:27:44;27.85;;;13.88;;
43114;SDS011;28727;50.068;14.452;2022-12-11T00:30:16;27.17;;;13.25;;
43114;SDS011;28727;50.068;14.452;2022-12-11T00:32:50;30.02;;;13.40;;
43114;SDS011;28727;50.068;14.452;2022-12-11T00:35:22;26.63;;;13.60;;
43114;SDS011;28727;50.068;14.452;2022-12-11T00:37:55;29.33;;;13.57;;
43114;SDS011;28727;50.068;14.452;2022-12-11T00:40:27;28.85;;;13.73;;
43114;SDS011;28727;50.068;14.452;2022-12-11T00:42:59;30.67;;;13.77;;
43114;SDS011;28727;50.068;14.452;2022-12-11T00:45:34;27.25;;;12.80;;
43114;SDS011;28727;50.068;14.452;2022-12-11T00:48:11;27.27;;;12.32;;
43114;SDS011;28727;50.068;14.452;2022-12-11T00:50:43;29.27;;;13.32;;
43114;SDS011;28727;50.068;14.452;2022-12-11T00:53:15;28.38;;;13.25;;
43114;SDS011;28727;50.068;14.452;2022-12-11T00:55:46;28.33;;;12.98;;
43114;SDS011;28727;50.068;14.452;2022-12-11T00:58:21;28.67;;;13.90;;
43114;SDS011;28727;50.068;14.452;2022-12-11T01:00:54;28.73;;;13.63;;
43114;SDS011;28727;50.068;14.452;2022-12-11T01:03:25;27.48;;;13.20;;
43114;SDS011;28727;50.068;14.452;2022-12-11T01:06:01;25.85;;;13.07;;
43114;SDS011;28727;50.068;14.452;2022-12-11T01:08:34;26.35;;;13.90;;
43114;SDS011;28727;50.068;14.452;2022-12-11T01:11:10;28.52;;;13.55;;
43114;SDS011;28727;50.068;14.452;2022-12-11T01:13:45;29.85;;;13.65;;
43114;SDS011;28727;50.068;14.452;2022-12-11T01:16:17;30.65;;;13.50;;
43114;SDS011;28727;50.068;14.452;2022-12-11T01:18:48;29.35;;;15.35;;
43114;SDS011;28727;50.068;14.452;2022-12-11T01:21:20;29.85;;;14.02;;
43114;SDS011;28727;50.068;14.452;2022-12-11T01:23:52;26.10;;;12.70;;
43114;SDS011;28727;50.068;14.452;2022-12-11T01:26:24;27.63;;;13.32;;
43114;SDS011;28727;50.068;14.452;2022-12-11T01:28:56;30.85;;;13.80;;
43114;SDS011;28727;50.068;14.452;2022-12-11T01:31:28;28.38;;;13.95;;
43114;SDS011;28727;50.068;14.452;2022-12-11T01:34:00;30.67;;;14.23;;
43114;SDS011;28727;50.068;14.452;2022-12-11T01:36:31;26.67;;;12.55;;
43114;SDS011;28727;50.068;14.452;2022-12-11T01:39:03;27.98;;;12.52;;
43114;SDS011;28727;50.068;14.452;2022-12-11T01:41:35;26.75;;;12.68;;
43114;SDS011;28727;50.068;14.452;2022-12-11T01:45:00;24.70;;;11.82;;
43114;SDS011;28727;50.068;14.452;2022-12-11T01:47:01;28.17;;;14.15;;
43114;SDS011;28727;50.068;14.452;2022-12-11T01:49:32;27.27;;;14.13;;
43114;SDS011;28727;50.068;14.452;2022-12-11T01:54:38;30.47;;;13.83;;
43114;SDS011;28727;50.068;14.452;2022-12-11T01:57:10;26.08;;;13.48;;
43114;SDS011;28727;50.068;14.452;2022-12-11T01:59:46;29.45;;;13.40;;
43114;SDS011;28727;50.068;14.452;2022-12-11T02:02:27;26.08;;;12.70;;
43114;SDS011;28727;50.068;14.452;2022-12-11T02:05:03;31.05;;;14.77;;
43114;SDS011;28727;50.068;14.452;2022-12-11T02:07:37;29.30;;;14.13;;
43114;SDS011;28727;50.068;14.452;2022-12-11T02:10:16;27.30;;;13.43;;
43114;SDS011;28727;50.068;14.452;2022-12-11T02:12:58;28.60;;;13.68;;
43114;SDS011;28727;50.068;14.452;2022-12-11T02:15:44;29.42;;;13.98;;
43114;SDS011;28727;50.068;14.452;2022-12-11T02:18:24;25.83;;;13.13;;
43114;SDS011;28727;50.068;14.452;2022-12-11T02:21:24;28.45;;;13.77;;
43114;SDS011;28727;50.068;14.452;2022-12-11T02:26:46;26.05;;;13.88;;
43114;SDS011;28727;50.068;14.452;2022-12-11T02:30:16;27.17;;;12.63;;
43114;SDS011;28727;50.068;14.452;2022-12-11T02:32:55;25.23;;;12.23;;
43114;SDS011;28727;50.068;14.452;2022-12-11T02:35:35;23.30;;;11.90;;
43114;SDS011;28727;50.068;14.452;2022-12-11T02:38:33;28.02;;;12.50;;
43114;SDS011;28727;50.068;14.452;2022-12-11T02:41:06;25.60;;;13.43;;
43114;SDS011;28727;50.068;14.452;2022-12-11T02:46:12;24.85;;;12.18;;
43114;SDS011;28727;50.068;14.452;2022-12-11T02:48:45;24.20;;;12.20;;
43114;SDS011;28727;50.068;14.452;2022-12-11T02:51:28;25.33;;;11.82;;
43114;SDS011;28727;50.068;14.452;2022-12-11T02:54:05;25.83;;;11.45;;
43114;SDS011;28727;50.068;14.452;2022-12-11T02:56:42;22.95;;;11.98;;
43114;SDS011;28727;50.068;14.452;2022-12-11T02:59:19;21.75;;;10.60;;
43114;SDS011;28727;50.068;14.452;2022-12-11T03:01:57;22.00;;;10.30;;
43114;SDS011;28727;50.068;14.452;2022-12-11T03:04:28;22.25;;;11.35;;
43114;SDS011;28727;50.068;14.452;2022-12-11T03:07:02;23.45;;;11.77;;
43114;SDS011;28727;50.068;14.452;2022-12-11T03:09:43;20.48;;;10.25;;
43114;SDS011;28727;50.068;14.452;2022-12-11T03:12:22;22.15;;;10.70;;
43114;SDS011;28727;50.068;14.452;2022-12-11T03:15:00;19.92;;;9.77;;
43114;SDS011;28727;50.068;14.452;2022-12-11T03:20:32;20.40;;;9.60;;
43114;SDS011;28727;50.068;14.452;2022-12-11T03:23:16;20.40;;;10.30;;
43114;SDS011;28727;50.068;14.452;2022-12-11T03:25:55;18.60;;;10.07;;
43114;SDS011;28727;50.068;14.452;2022-12-11T03:31:21;18.83;;;10.38;;
43114;SDS011;28727;50.068;14.452;2022-12-11T03:34:00;20.60;;;10.30;;
43114;SDS011;28727;50.068;14.452;2022-12-11T03:36:35;17.63;;;9.55;;
43114;SDS011;28727;50.068;14.452;2022-12-11T03:39:10;19.08;;;9.90;;
43114;SDS011;28727;50.068;14.452;2022-12-11T03:41:46;20.00;;;10.25;;
43114;SDS011;28727;50.068;14.452;2022-12-11T03:44:20;19.65;;;9.27;;
43114;SDS011;28727;50.068;14.452;2022-12-11T03:46:54;19.88;;;9.93;;
43114;SDS011;28727;50.068;14.452;2022-12-11T03:49:29;22.88;;;10.85;;
43114;SDS011;28727;50.068;14.452;2022-12-11T03:52:05;22.10;;;11.07;;
43114;SDS011;28727;50.068;14.452;2022-12-11T03:54:40;24.73;;;11.90;;
43114;SDS011;28727;50.068;14.452;2022-12-11T03:57:16;24.33;;;12.18;;
43114;SDS011;28727;50.068;14.452;2022-12-11T03:59:51;22.38;;;11.40;;
43114;SDS011;28727;50.068;14.452;2022-12-11T04:02:23;25.55;;;12.77;;
43114;SDS011;28727;50.068;14.452;2022-12-11T04:04:55;25.80;;;11.85;;
43114;SDS011;28727;50.068;14.452;2022-12-11T04:07:26;24.48;;;12.93;;
43114;SDS011;28727;50.068;14.452;2022-12-11T04:09:59;21.80;;;11.13;;
43114;SDS011;28727;50.068;14.452;2022-12-11T04:12:30;25.38;;;11.85;;
43114;SDS011;28727;50.068;14.452;2022-12-11T04:15:02;25.58;;;12.27;;
43114;SDS011;28727;50.068;14.452;2022-12-11T04:17:34;22.27;;;11.85;;
43114;SDS011;28727;50.068;14.452;2022-12-11T04:20:25;22.42;;;12.27;;
43114;SDS011;28727;50.068;14.452;2022-12-11T04:23:16;21.05;;;11.00;;
43114;SDS011;28727;50.068;14.452;2022-12-11T04:26:08;21.70;;;11.45;;
43114;SDS011;28727;50.068;14.452;2022-12-11T04:28:46;23.27;;;11.98;;
43114;SDS011;28727;50.068;14.452;2022-12-11T04:31:19;21.73;;;11.27;;
43114;SDS011;28727;50.068;14.452;2022-12-11T04:33:52;22.13;;;10.98;;
43114;SDS011;28727;50.068;14.452;2022-12-11T04:36:24;23.33;;;11.93;;
43114;SDS011;28727;50.068;14.452;2022-12-11T04:38:58;23.67;;;12.32;;
43114;SDS011;28727;50.068;14.452;2022-12-11T04:41:36;22.13;;;11.45;;
43114;SDS011;28727;50.068;14.452;2022-12-11T04:44:09;18.65;;;11.43;;
43114;SDS011;28727;50.068;14.452;2022-12-11T04:46:45;20.00;;;11.30;;
43114;SDS011;28727;50.068;14.452;2022-12-11T04:49:17;22.90;;;11.00;;
43114;SDS011;28727;50.068;14.452;2022-12-11T04:51:49;27.67;;;12.68;;
43114;SDS011;28727;50.068;14.452;2022-12-11T04:54:20;21.40;;;11.05;;
43114;SDS011;28727;50.068;14.452;2022-12-11T04:56:52;21.48;;;10.65;;
43114;SDS011;28727;50.068;14.452;2022-12-11T04:59:25;20.33;;;10.63;;
43114;SDS011;28727;50.068;14.452;2022-12-11T05:01:59;19.92;;;10.70;;
43114;SDS011;28727;50.068;14.452;2022-12-11T05:04:32;21.90;;;11.13;;
43114;SDS011;28727;50.068;14.452;2022-12-11T05:07:05;23.17;;;12.30;;
43114;SDS011;28727;50.068;14.452;2022-12-11T05:09:36;20.80;;;11.00;;
43114;SDS011;28727;50.068;14.452;2022-12-11T05:12:08;24.73;;;11.88;;
43114;SDS011;28727;50.068;14.452;2022-12-11T05:14:39;18.40;;;9.73;;
43114;SDS011;28727;50.068;14.452;2022-12-11T05:17:11;19.35;;;10.00;;
43114;SDS011;28727;50.068;14.452;2022-12-11T05:19:45;20.35;;;10.80;;
43114;SDS011;28727;50.068;14.452;2022-12-11T05:22:21;19.95;;;10.52;;
43114;SDS011;28727;50.068;14.452;2022-12-11T05:24:52;20.48;;;10.07;;
43114;SDS011;28727;50.068;14.452;2022-12-11T05:27:24;18.30;;;10.60;;
43114;SDS011;28727;50.068;14.452;2022-12-11T05:29:56;19.50;;;9.88;;
43114;SDS011;28727;50.068;14.452;2022-12-11T05:32:30;19.83;;;10.35;;
43114;SDS011;28727;50.068;14.452;2022-12-11T05:35:01;20.60;;;11.10;;
43114;SDS011;28727;50.068;14.452;2022-12-11T05:37:36;18.52;;;9.93;;
43114;SDS011;28727;50.068;14.452;2022-12-11T05:40:08;16.35;;;8.95;;
43114;SDS011;28727;50.068;14.452;2022-12-11T05:42:45;16.88;;;8.80;;
43114;SDS011;28727;50.068;14.452;2022-12-11T05:45:17;18.97;;;9.60;;
43114;SDS011;28727;50.068;14.452;2022-12-11T05:47:49;19.08;;;10.10;;
43114;SDS011;28727;50.068;14.452;2022-12-11T05:50:21;19.75;;;9.60;;
43114;SDS011;28727;50.068;14.452;2022-12-11T05:52:52;19.27;;;9.57;;
43114;SDS011;28727;50.068;14.452;2022-12-11T05:55:24;17.55;;;9.35;;
43114;SDS011;28727;50.068;14.452;2022-12-11T05:57:56;18.52;;;9.07;;
43114;SDS011;28727;50.068;14.452;2022-12-11T06:00:28;18.55;;;10.02;;
43114;SDS011;28727;50.068;14.452;2022-12-11T06:03:09;18.20;;;9.57;;
43114;SDS011;28727;50.068;14.452;2022-12-11T06:05:41;17.52;;;8.70;;
43114;SDS011;28727;50.068;14.452;2022-12-11T06:08:14;15.77;;;8.63;;
43114;SDS011;28727;50.068;14.452;2022-12-11T06:10:53;19.20;;;10.15;;
43114;SDS011;28727;50.068;14.452;2022-12-11T06:13:24;17.40;;;9.43;;
43114;SDS011;28727;50.068;14.452;2022-12-11T06:16:03;21.05;;;9.40;;
43114;SDS011;28727;50.068;14.452;2022-12-11T06:18:40;17.73;;;9.25;;
43114;SDS011;28727;50.068;14.452;2022-12-11T06:23:54;16.80;;;8.30;;
43114;SDS011;28727;50.068;14.452;2022-12-11T06:26:27;16.07;;;8.53;;
43114;SDS011;28727;50.068;14.452;2022-12-11T06:28:59;17.52;;;9.05;;
43114;SDS011;28727;50.068;14.452;2022-12-11T06:31:39;17.98;;;9.00;;
43114;SDS011;28727;50.068;14.452;2022-12-11T06:34:11;18.55;;;9.13;;
43114;SDS011;28727;50.068;14.452;2022-12-11T06:36:43;16.80;;;9.18;;
43114;SDS011;28727;50.068;14.452;2022-12-11T06:39:15;17.92;;;8.73;;
43114;SDS011;28727;50.068;14.452;2022-12-11T06:41:49;18.27;;;9.00;;
43114;SDS011;28727;50.068;14.452;2022-12-11T06:44:21;16.13;;;8.00;;
43114;SDS011;28727;50.068;14.452;2022-12-11T06:46:52;18.25;;;9.25;;
43114;SDS011;28727;50.068;14.452;2022-12-11T06:49:24;15.95;;;8.05;;
43114;SDS011;28727;50.068;14.452;2022-12-11T06:51:55;16.58;;;9.55;;
43114;SDS011;28727;50.068;14.452;2022-12-11T06:54:27;15.65;;;7.93;;
43114;SDS011;28727;50.068;14.452;2022-12-11T06:56:59;16.85;;;8.52;;
43114;SDS011;28727;50.068;14.452;2022-12-11T06:59:31;17.50;;;7.93;;
43114;SDS011;28727;50.068;14.452;2022-12-11T07:02:03;16.17;;;8.25;;
43114;SDS011;28727;50.068;14.452;2022-12-11T07:04:38;15.20;;;7.50;;
43114;SDS011;28727;50.068;14.452;2022-12-11T07:07:10;16.17;;;8.63;;
43114;SDS011;28727;50.068;14.452;2022-12-11T07:09:42;16.15;;;8.45;;
43114;SDS011;28727;50.068;14.452;2022-12-11T07:12:16;13.65;;;7.70;;
43114;SDS011;28727;50.068;14.452;2022-12-11T07:14:48;15.75;;;8.38;;
43114;SDS011;28727;50.068;14.452;2022-12-11T07:17:20;15.77;;;8.35;;
43114;SDS011;28727;50.068;14.452;2022-12-11T07:19:51;17.40;;;9.05;;
43114;SDS011;28727;50.068;14.452;2022-12-11T07:22:23;15.18;;;8.60;;
43114;SDS011;28727;50.068;14.452;2022-12-11T07:24:54;15.40;;;8.30;;
43114;SDS011;28727;50.068;14.452;2022-12-11T07:27:29;17.88;;;8.70;;
43114;SDS011;28727;50.068;14.452;2022-12-11T07:30:00;15.57;;;8.52;;
43114;SDS011;28727;50.068;14.452;2022-12-11T07:32:35;19.08;;;8.80;;
43114;SDS011;28727;50.068;14.452;2022-12-11T07:35:07;17.60;;;9.00;;
43114;SDS011;28727;50.068;14.452;2022-12-11T07:37:40;17.42;;;8.85;;
43114;SDS011;28727;50.068;14.452;2022-12-11T07:40:11;18.88;;;9.40;;
43114;SDS011;28727;50.068;14.452;2022-12-11T07:42:46;19.55;;;10.38;;
43114;SDS011;28727;50.068;14.452;2022-12-11T07:45:22;18.42;;;9.63;;
43114;SDS011;28727;50.068;14.452;2022-12-11T07:47:53;19.27;;;9.55;;
43114;SDS011;28727;50.068;14.452;2022-12-11T07:50:25;20.38;;;10.43;;
43114;SDS011;28727;50.068;14.452;2022-12-11T07:52:57;19.48;;;10.68;;
43114;SDS011;28727;50.068;14.452;2022-12-11T07:55:28;20.13;;;10.18;;
43114;SDS011;28727;50.068;14.452;2022-12-11T07:58:00;21.00;;;11.43;;
43114;SDS011;28727;50.068;14.452;2022-12-11T08:00:32;20.30;;;10.23;;
43114;SDS011;28727;50.068;14.452;2022-12-11T08:03:03;18.65;;;9.77;;
43114;SDS011;28727;50.068;14.452;2022-12-11T08:05:35;19.67;;;10.52;;
43114;SDS011;28727;50.068;14.452;2022-12-11T08:08:06;20.10;;;9.48;;
43114;SDS011;28727;50.068;14.452;2022-12-11T08:10:38;20.00;;;10.23;;
43114;SDS011;28727;50.068;14.452;2022-12-11T08:13:10;20.10;;;10.32;;
43114;SDS011;28727;50.068;14.452;2022-12-11T08:15:42;20.13;;;10.70;;
43114;SDS011;28727;50.068;14.452;2022-12-11T08:18:14;23.02;;;10.93;;
43114;SDS011;28727;50.068;14.452;2022-12-11T08:20:48;20.75;;;10.40;;
43114;SDS011;28727;50.068;14.452;2022-12-11T08:23:20;19.67;;;10.23;;
43114;SDS011;28727;50.068;14.452;2022-12-11T08:25:52;20.92;;;10.05;;
43114;SDS011;28727;50.068;14.452;2022-12-11T08:28:24;21.70;;;10.93;;
43114;SDS011;28727;50.068;14.452;2022-12-11T08:30:59;19.63;;;9.65;;
43114;SDS011;28727;50.068;14.452;2022-12-11T08:33:30;22.02;;;10.70;;
43114;SDS011;28727;50.068;14.452;2022-12-11T08:36:03;22.35;;;11.05;;
43114;SDS011;28727;50.068;14.452;2022-12-11T08:38:36;19.23;;;9.98;;
43114;SDS011;28727;50.068;14.452;2022-12-11T08:41:12;19.17;;;10.43;;
43114;SDS011;28727;50.068;14.452;2022-12-11T08:43:46;19.50;;;9.75;;
43114;SDS011;28727;50.068;14.452;2022-12-11T08:46:18;19.80;;;9.80;;
43114;SDS011;28727;50.068;14.452;2022-12-11T08:48:50;17.65;;;9.18;;
43114;SDS011;28727;50.068;14.452;2022-12-11T08:51:23;18.50;;;9.95;;
43114;SDS011;28727;50.068;14.452;2022-12-11T08:53:57;20.13;;;10.27;;
43114;SDS011;28727;50.068;14.452;2022-12-11T08:56:30;18.42;;;9.20;;
43114;SDS011;28727;50.068;14.452;2022-12-11T08:59:01;18.25;;;9.15;;
43114;SDS011;28727;50.068;14.452;2022-12-11T09:01:34;19.55;;;9.68;;
43114;SDS011;28727;50.068;14.452;2022-12-11T09:04:06;17.00;;;8.82;;
43114;SDS011;28727;50.068;14.452;2022-12-11T09:06:39;16.77;;;9.57;;
43114;SDS011;28727;50.068;14.452;2022-12-11T09:09:11;16.95;;;8.77;;
43114;SDS011;28727;50.068;14.452;2022-12-11T09:11:43;19.13;;;8.95;;
43114;SDS011;28727;50.068;14.452;2022-12-11T09:14:14;19.60;;;9.30;;
43114;SDS011;28727;50.068;14.452;2022-12-11T09:16:46;17.92;;;9.57;;
43114;SDS011;28727;50.068;14.452;2022-12-11T09:19:19;18.67;;;8.85;;
43114;SDS011;28727;50.068;14.452;2022-12-11T09:21:50;17.20;;;9.35;;
43114;SDS011;28727;50.068;14.452;2022-12-11T09:24:22;17.30;;;9.18;;
43114;SDS011;28727;50.068;14.452;2022-12-11T09:26:54;18.52;;;9.75;;
43114;SDS011;28727;50.068;14.452;2022-12-11T09:29:25;17.65;;;10.32;;
43114;SDS011;28727;50.068;14.452;2022-12-11T09:31:57;19.13;;;9.98;;
43114;SDS011;28727;50.068;14.452;2022-12-11T09:34:29;19.20;;;9.65;;
43114;SDS011;28727;50.068;14.452;2022-12-11T09:37:01;16.88;;;8.32;;
43114;SDS011;28727;50.068;14.452;2022-12-11T09:39:32;15.20;;;8.82;;
43114;SDS011;28727;50.068;14.452;2022-12-11T09:47:35;21.35;;;9.32;;
43114;SDS011;28727;50.068;14.452;2022-12-11T09:53:06;17.15;;;8.75;;
43114;SDS011;28727;50.068;14.452;2022-12-11T09:58:38;14.35;;;7.78;;
43114;SDS011;28727;50.068;14.452;2022-12-11T10:07:17;16.98;;;8.65;;
43114;SDS011;28727;50.068;14.452;2022-12-11T10:18:31;19.20;;;8.77;;
43114;SDS011;28727;50.068;14.452;2022-12-11T10:21:04;14.82;;;7.53;;
43114;SDS011;28727;50.068;14.452;2022-12-11T10:23:41;12.13;;;6.85;;
43114;SDS011;28727;50.068;14.452;2022-12-11T10:26:22;13.32;;;6.80;;
43114;SDS011;28727;50.068;14.452;2022-12-11T10:28:58;13.65;;;7.20;;
43114;SDS011;28727;50.068;14.452;2022-12-11T10:31:37;12.80;;;6.30;;
43114;SDS011;28727;50.068;14.452;2022-12-11T10:34:23;13.90;;;6.65;;
43114;SDS011;28727;50.068;14.452;2022-12-11T10:37:01;12.55;;;6.07;;
43114;SDS011;28727;50.068;14.452;2022-12-11T10:39:32;12.32;;;6.45;;
43114;SDS011;28727;50.068;14.452;2022-12-11T10:42:15;14.80;;;6.40;;
43114;SDS011;28727;50.068;14.452;2022-12-11T10:45:02;13.07;;;6.97;;
43114;SDS011;28727;50.068;14.452;2022-12-11T10:47:35;12.98;;;6.70;;
43114;SDS011;28727;50.068;14.452;2022-12-11T10:50:07;12.90;;;6.63;;
43114;SDS011;28727;50.068;14.452;2022-12-11T10:52:52;12.30;;;6.43;;
43114;SDS011;28727;50.068;14.452;2022-12-11T10:55:26;13.90;;;6.75;;
43114;SDS011;28727;50.068;14.452;2022-12-11T10:58:02;11.75;;;6.43;;
43114;SDS011;28727;50.068;14.452;2022-12-11T11:03:19;14.63;;;7.25;;
43114;SDS011;28727;50.068;14.452;2022-12-11T11:06:01;9.90;;;5.07;;
43114;SDS011;28727;50.068;14.452;2022-12-11T11:08:44;12.60;;;5.95;;
43114;SDS011;28727;50.068;14.452;2022-12-11T11:11:30;13.63;;;6.93;;
43114;SDS011;28727;50.068;14.452;2022-12-11T11:14:12;11.00;;;6.25;;
43114;SDS011;28727;50.068;14.452;2022-12-11T11:16:49;14.85;;;6.55;;
43114;SDS011;28727;50.068;14.452;2022-12-11T11:19:26;12.95;;;6.75;;
43114;SDS011;28727;50.068;14.452;2022-12-11T11:22:14;13.93;;;7.03;;
43114;SDS011;28727;50.068;14.452;2022-12-11T11:24:53;12.20;;;6.22;;
43114;SDS011;28727;50.068;14.452;2022-12-11T11:27:28;12.48;;;7.10;;
43114;SDS011;28727;50.068;14.452;2022-12-11T11:30:03;13.55;;;7.32;;
43114;SDS011;28727;50.068;14.452;2022-12-11T11:32:38;13.27;;;7.50;;
43114;SDS011;28727;50.068;14.452;2022-12-11T11:37:45;12.90;;;6.25;;
43114;SDS011;28727;50.068;14.452;2022-12-11T11:40:27;14.35;;;7.03;;
43114;SDS011;28727;50.068;14.452;2022-12-11T11:45:57;13.00;;;6.93;;
43114;SDS011;28727;50.068;14.452;2022-12-11T11:48:39;15.00;;;7.35;;
43114;SDS011;28727;50.068;14.452;2022-12-11T11:51:15;13.20;;;7.32;;
43114;SDS011;28727;50.068;14.452;2022-12-11T11:53:54;15.40;;;7.10;;
43114;SDS011;28727;50.068;14.452;2022-12-11T11:56:31;13.85;;;6.65;;
43114;SDS011;28727;50.068;14.452;2022-12-11T12:01:54;19.20;;;7.45;;
43114;SDS011;28727;50.068;14.452;2022-12-11T12:04:31;17.17;;;8.35;;
43114;SDS011;28727;50.068;14.452;2022-12-11T12:22:44;13.80;;;7.00;;
43114;SDS011;28727;50.068;14.452;2022-12-11T12:28:17;15.95;;;7.80;;
43114;SDS011;28727;50.068;14.452;2022-12-11T12:34:29;15.93;;;7.07;;
43114;SDS011;28727;50.068;14.452;2022-12-11T12:37:14;13.52;;;6.82;;
43114;SDS011;28727;50.068;14.452;2022-12-11T12:40:24;12.27;;;6.72;;
43114;SDS011;28727;50.068;14.452;2022-12-11T12:48:52;12.63;;;6.65;;
43114;SDS011;28727;50.068;14.452;2022-12-11T12:51:26;12.60;;;5.78;;
43114;SDS011;28727;50.068;14.452;2022-12-11T12:54:00;13.23;;;6.10;;
43114;SDS011;28727;50.068;14.452;2022-12-11T12:56:42;12.73;;;6.15;;
43114;SDS011;28727;50.068;14.452;2022-12-11T12:59:20;13.20;;;6.70;;
43114;SDS011;28727;50.068;14.452;2022-12-11T13:02:00;14.65;;;7.20;;
43114;SDS011;28727;50.068;14.452;2022-12-11T13:07:27;13.70;;;5.80;;
43114;SDS011;28727;50.068;14.452;2022-12-11T13:10:06;10.35;;;6.03;;
43114;SDS011;28727;50.068;14.452;2022-12-11T13:12:56;14.45;;;6.38;;
43114;SDS011;28727;50.068;14.452;2022-12-11T13:15:39;13.18;;;7.07;;
43114;SDS011;28727;50.068;14.452;2022-12-11T13:18:34;13.27;;;6.13;;
43114;SDS011;28727;50.068;14.452;2022-12-11T13:21:24;14.20;;;7.47;;
43114;SDS011;28727;50.068;14.452;2022-12-11T13:26:43;13.48;;;7.03;;
43114;SDS011;28727;50.068;14.452;2022-12-11T13:34:39;16.35;;;7.93;;
43114;SDS011;28727;50.068;14.452;2022-12-11T13:37:29;16.80;;;8.10;;
43114;SDS011;28727;50.068;14.452;2022-12-11T13:40:06;13.18;;;7.00;;
43114;SDS011;28727;50.068;14.452;2022-12-11T13:42:53;12.70;;;6.68;;
43114;SDS011;28727;50.068;14.452;2022-12-11T13:45:32;14.18;;;6.22;;
43114;SDS011;28727;50.068;14.452;2022-12-11T13:51:12;12.88;;;6.18;;
43114;SDS011;28727;50.068;14.452;2022-12-11T13:53:47;12.07;;;6.28;;
43114;SDS011;28727;50.068;14.452;2022-12-11T13:56:20;11.95;;;6.15;;
43114;SDS011;28727;50.068;14.452;2022-12-11T13:58:52;11.60;;;6.63;;
43114;SDS011;28727;50.068;14.452;2022-12-11T14:01:32;13.80;;;6.32;;
43114;SDS011;28727;50.068;14.452;2022-12-11T14:04:06;11.88;;;6.50;;
43114;SDS011;28727;50.068;14.452;2022-12-11T14:06:42;14.13;;;6.47;;
43114;SDS011;28727;50.068;14.452;2022-12-11T14:09:16;12.52;;;6.43;;
43114;SDS011;28727;50.068;14.452;2022-12-11T14:11:52;13.90;;;6.55;;
43114;SDS011;28727;50.068;14.452;2022-12-11T14:17:11;13.02;;;7.22;;
43114;SDS011;28727;50.068;14.452;2022-12-11T14:19:45;12.88;;;6.55;;
43114;SDS011;28727;50.068;14.452;2022-12-11T14:22:19;11.07;;;6.25;;
43114;SDS011;28727;50.068;14.452;2022-12-11T14:27:28;12.88;;;6.70;;
43114;SDS011;28727;50.068;14.452;2022-12-11T14:30:08;11.25;;;6.20;;
43114;SDS011;28727;50.068;14.452;2022-12-11T14:32:41;13.05;;;6.38;;
43114;SDS011;28727;50.068;14.452;2022-12-11T14:35:34;12.05;;;6.00;;
43114;SDS011;28727;50.068;14.452;2022-12-11T14:38:27;11.68;;;6.43;;
43114;SDS011;28727;50.068;14.452;2022-12-11T14:41:02;12.13;;;6.50;;
43114;SDS011;28727;50.068;14.452;2022-12-11T14:43:42;10.73;;;5.57;;
43114;SDS011;28727;50.068;14.452;2022-12-11T14:46:19;10.30;;;5.38;;
43114;SDS011;28727;50.068;14.452;2022-12-11T14:48:55;11.02;;;6.03;;
43114;SDS011;28727;50.068;14.452;2022-12-11T14:51:35;11.90;;;5.88;;
43114;SDS011;28727;50.068;14.452;2022-12-11T14:54:14;9.63;;;5.78;;
43114;SDS011;28727;50.068;14.452;2022-12-11T14:56:57;12.98;;;6.10;;
43114;SDS011;28727;50.068;14.452;2022-12-11T14:59:33;11.32;;;6.22;;
43114;SDS011;28727;50.068;14.452;2022-12-11T15:05:01;12.27;;;6.45;;
43114;SDS011;28727;50.068;14.452;2022-12-11T15:08:30;12.43;;;6.63;;
43114;SDS011;28727;50.068;14.452;2022-12-11T15:10:41;12.57;;;6.05;;
43114;SDS011;28727;50.068;14.452;2022-12-11T15:13:25;12.93;;;6.50;;
43114;SDS011;28727;50.068;14.452;2022-12-11T15:15:57;12.00;;;5.80;;
43114;SDS011;28727;50.068;14.452;2022-12-11T15:18:32;11.93;;;6.30;;
43114;SDS011;28727;50.068;14.452;2022-12-11T15:21:07;12.48;;;6.20;;
43114;SDS011;28727;50.068;14.452;2022-12-11T15:26:15;14.80;;;6.20;;
43114;SDS011;28727;50.068;14.452;2022-12-11T15:28:57;12.18;;;6.80;;
43114;SDS011;28727;50.068;14.452;2022-12-11T15:31:32;12.93;;;5.90;;
43114;SDS011;28727;50.068;14.452;2022-12-11T15:34:19;14.05;;;6.50;;
43114;SDS011;28727;50.068;14.452;2022-12-11T15:36:52;13.55;;;6.70;;
43114;SDS011;28727;50.068;14.452;2022-12-11T15:39:23;12.07;;;6.05;;
43114;SDS011;28727;50.068;14.452;2022-12-11T15:41:55;13.15;;;6.47;;
43114;SDS011;28727;50.068;14.452;2022-12-11T15:44:27;10.55;;;6.45;;
43114;SDS011;28727;50.068;14.452;2022-12-11T15:47:09;13.15;;;6.50;;
43114;SDS011;28727;50.068;14.452;2022-12-11T15:49:42;14.02;;;6.35;;
43114;SDS011;28727;50.068;14.452;2022-12-11T15:52:13;12.68;;;6.70;;
43114;SDS011;28727;50.068;14.452;2022-12-11T15:54:45;12.23;;;6.75;;
43114;SDS011;28727;50.068;14.452;2022-12-11T15:57:21;11.80;;;6.03;;
43114;SDS011;28727;50.068;14.452;2022-12-11T15:59:54;12.82;;;6.50;;
43114;SDS011;28727;50.068;14.452;2022-12-11T16:02:26;14.60;;;6.88;;
43114;SDS011;28727;50.068;14.452;2022-12-11T16:05:00;12.40;;;6.57;;
43114;SDS011;28727;50.068;14.452;2022-12-11T16:07:32;19.75;;;6.18;;
43114;SDS011;28727;50.068;14.452;2022-12-11T16:10:04;13.90;;;6.55;;
43114;SDS011;28727;50.068;14.452;2022-12-11T16:12:38;11.27;;;6.15;;
43114;SDS011;28727;50.068;14.452;2022-12-11T16:15:10;12.15;;;6.05;;
43114;SDS011;28727;50.068;14.452;2022-12-11T16:18:03;12.10;;;6.55;;
43114;SDS011;28727;50.068;14.452;2022-12-11T16:20:38;13.73;;;6.40;;
43114;SDS011;28727;50.068;14.452;2022-12-11T16:23:11;15.30;;;7.10;;
43114;SDS011;28727;50.068;14.452;2022-12-11T16:25:44;12.80;;;6.93;;
43114;SDS011;28727;50.068;14.452;2022-12-11T16:28:17;14.20;;;7.07;;
43114;SDS011;28727;50.068;14.452;2022-12-11T16:30:51;13.90;;;7.00;;
43114;SDS011;28727;50.068;14.452;2022-12-11T16:33:23;14.13;;;6.95;;
43114;SDS011;28727;50.068;14.452;2022-12-11T16:35:54;13.07;;;6.53;;
43114;SDS011;28727;50.068;14.452;2022-12-11T16:38:26;12.27;;;6.88;;
43114;SDS011;28727;50.068;14.452;2022-12-11T16:40:58;14.05;;;6.57;;
43114;SDS011;28727;50.068;14.452;2022-12-11T16:43:33;11.23;;;6.60;;
43114;SDS011;28727;50.068;14.452;2022-12-11T16:46:04;12.23;;;7.50;;
43114;SDS011;28727;50.068;14.452;2022-12-11T16:48:38;12.98;;;6.97;;
43114;SDS011;28727;50.068;14.452;2022-12-11T16:51:10;13.27;;;7.20;;
43114;SDS011;28727;50.068;14.452;2022-12-11T16:53:41;15.05;;;7.28;;